Time;durP1;ratioP1;P1;durP2;ratioP2;P2;SDS_P1;SDS_P2;PMS_P1;PMS_P2;Temp;Humidity;BMP_temperature;BMP_pressure;BME280_temperature;BME280_humidity;BME280_pressure;Samples;Min_cycle;Max_cycle;Signal;HPM_P1;HPM_P2
2023/07/10 00:00:51;;;;;;;9.68;5.50;;;19.40;99.90;;;;;;4946513;28;20224;-81
2023/07/10 00:03:18;;;;;;;8.43;4.90;;;19.40;99.90;;;;;;4931191;29;20690;-80
2023/07/10 00:05:44;;;;;;;11.85;5.78;;;19.40;99.90;;;;;;4944993;28;20224;-81
2023/07/10 00:08:11;;;;;;;10.45;5.78;;;19.40;99.90;;;;;;4930414;28;20311;-81
2023/07/10 00:10:39;;;;;;;8.05;4.97;;;19.40;99.90;;;;;;4937468;29;20592;-80
2023/07/10 00:13:09;;;;;;;10.13;6.05;;;19.40;99.90;;;;;;4946828;29;20224;-81
2023/07/10 00:15:35;;;;;;;10.63;5.40;;;19.30;99.90;;;;;;4959727;28;20855;-82
2023/07/10 00:18:05;;;;;;;10.63;5.03;;;19.40;99.90;;;;;;4933866;29;20247;-81
2023/07/10 00:20:32;;;;;;;10.80;6.20;;;19.30;99.90;;;;;;4953332;28;20579;-81
2023/07/10 00:22:58;;;;;;;9.95;5.38;;;19.30;99.90;;;;;;4953763;28;20230;-81
2023/07/10 00:25:25;;;;;;;9.25;5.22;;;19.30;99.90;;;;;;4956934;28;20245;-80
2023/07/10 00:27:53;;;;;;;7.95;5.20;;;19.20;99.90;;;;;;4961486;28;20220;-80
2023/07/10 00:30:22;;;;;;;8.98;5.38;;;19.20;99.90;;;;;;4952403;28;20310;-80
2023/07/10 00:32:52;;;;;;;10.52;5.60;;;19.20;99.90;;;;;;4944400;28;20231;-81
2023/07/10 00:35:19;;;;;;;8.10;5.57;;;19.10;99.90;;;;;;4949546;28;20718;-79
2023/07/10 00:37:49;;;;;;;12.55;5.75;;;19.10;99.90;;;;;;4950951;28;20250;-80
2023/07/10 00:40:22;;;;;;;12.32;5.78;;;19.10;99.90;;;;;;4949995;28;20226;-79
2023/07/10 00:42:56;;;;;;;10.93;5.60;;;19.10;99.90;;;;;;4952082;28;20227;-80
2023/07/10 00:45:22;;;;;;;9.45;5.05;;;19.10;99.90;;;;;;4948814;28;20272;-80
2023/07/10 00:47:59;;;;;;;13.25;5.47;;;19.10;99.90;;;;;;4952342;28;20687;-79
2023/07/10 00:50:31;;;;;;;8.75;5.53;;;19.10;99.90;;;;;;4972021;28;20231;-79
2023/07/10 00:53:00;;;;;;;9.55;5.47;;;19.10;99.90;;;;;;4974498;28;20219;-79
2023/07/10 00:55:33;;;;;;;9.80;5.20;;;19.10;99.90;;;;;;4965613;28;20328;-78
2023/07/10 00:58:14;;;;;;;9.75;5.10;;;19.10;99.90;;;;;;4973534;28;20291;-79
2023/07/10 01:00:55;;;;;;;8.63;4.97;;;19.10;99.90;;;;;;4955098;28;20301;-79
2023/07/10 01:03:25;;;;;;;9.80;5.80;;;19.10;99.90;;;;;;4953150;28;20220;-79
2023/07/10 01:05:52;;;;;;;11.73;5.28;;;19.10;99.90;;;;;;4963257;28;20310;-79
2023/07/10 01:08:18;;;;;;;10.45;5.13;;;19.10;99.90;;;;;;4969913;28;20215;-80
2023/07/10 01:10:45;;;;;;;8.60;5.18;;;19.10;99.90;;;;;;4953593;28;20749;-80
2023/07/10 01:13:13;;;;;;;12.10;6.43;;;19.20;99.90;;;;;;4969696;28;20228;-80
2023/07/10 01:15:40;;;;;;;9.18;5.40;;;19.20;99.90;;;;;;4975092;28;20223;-80
2023/07/10 01:18:10;;;;;;;10.00;5.25;;;19.20;99.90;;;;;;4954578;28;20227;-80
2023/07/10 01:20:40;;;;;;;8.35;5.03;;;19.20;99.90;;;;;;4956355;28;20231;-80
2023/07/10 01:23:09;;;;;;;7.15;4.82;;;19.20;99.90;;;;;;4951100;28;20965;-80
2023/07/10 01:25:43;;;;;;;8.13;5.10;;;19.20;99.90;;;;;;4950894;28;20258;-81
2023/07/10 01:28:15;;;;;;;11.20;5.50;;;19.20;99.90;;;;;;4969910;28;20222;-80
2023/07/10 01:30:44;;;;;;;7.45;5.47;;;19.20;99.90;;;;;;4956105;28;20242;-80
2023/07/10 01:33:16;;;;;;;7.63;5.10;;;19.20;99.90;;;;;;4957187;28;20231;-80
2023/07/10 01:35:45;;;;;;;8.95;5.07;;;19.20;99.90;;;;;;4951906;28;20277;-81
2023/07/10 01:38:15;;;;;;;8.43;5.13;;;19.20;99.90;;;;;;4944772;28;20257;-80
2023/07/10 01:40:49;;;;;;;10.20;5.40;;;19.30;99.90;;;;;;4931713;29;20234;-79
2023/07/10 01:43:16;;;;;;;10.13;5.40;;;19.30;99.90;;;;;;4946175;28;20271;-79
2023/07/10 01:45:45;;;;;;;6.75;4.95;;;19.30;99.90;;;;;;4929752;29;20226;-79
2023/07/10 01:48:14;;;;;;;9.27;5.60;;;19.30;99.90;;;;;;4931877;29;20244;-79
2023/07/10 01:50:44;;;;;;;13.43;5.25;;;19.30;99.90;;;;;;4930456;28;20259;-79
2023/07/10 01:53:11;;;;;;;7.53;5.35;;;19.30;99.90;;;;;;4932115;29;20228;-80
2023/07/10 01:55:44;;;;;;;9.73;5.22;;;19.30;99.90;;;;;;4932563;28;20340;-80
2023/07/10 01:58:12;;;;;;;8.48;4.88;;;19.30;99.90;;;;;;4945916;28;20246;-80
2023/07/10 02:00:40;;;;;;;10.05;5.00;;;19.30;99.90;;;;;;4936036;29;20274;-80
2023/07/10 02:03:07;;;;;;;6.82;5.13;;;19.30;99.90;;;;;;4933087;28;20227;-79
2023/07/10 02:05:34;;;;;;;6.50;4.25;;;19.30;99.90;;;;;;4931039;29;20220;-79
2023/07/10 02:08:01;;;;;;;9.32;4.50;;;19.30;99.90;;;;;;4935987;28;20307;-79
2023/07/10 02:10:28;;;;;;;8.55;5.57;;;19.30;99.90;;;;;;4940979;28;20306;-80
2023/07/10 02:12:56;;;;;;;9.80;5.03;;;19.30;99.90;;;;;;4933099;29;20334;-78
2023/07/10 02:15:23;;;;;;;14.05;4.85;;;19.20;99.90;;;;;;4929966;29;20255;-79
2023/07/10 02:17:51;;;;;;;8.38;5.15;;;19.30;99.90;;;;;;4927970;29;20303;-79
2023/07/10 02:20:18;;;;;;;9.57;4.80;;;19.20;99.90;;;;;;4934970;29;20797;-80
2023/07/10 02:22:45;;;;;;;6.95;4.70;;;19.20;99.90;;;;;;4943738;28;20236;-80
2023/07/10 02:25:14;;;;;;;7.57;5.43;;;19.20;99.90;;;;;;4934400;28;20228;-81
2023/07/10 02:27:41;;;;;;;6.50;4.60;;;19.20;99.90;;;;;;4949433;28;20472;-79
2023/07/10 02:30:10;;;;;;;8.70;4.68;;;19.20;99.90;;;;;;4934151;28;20852;-80
2023/07/10 02:32:38;;;;;;;10.88;5.32;;;19.20;99.90;;;;;;4937136;28;20226;-80
2023/07/10 02:35:05;;;;;;;8.13;5.00;;;19.20;99.90;;;;;;4929781;29;20219;-81
2023/07/10 02:37:32;;;;;;;9.00;4.97;;;19.20;99.90;;;;;;4938317;28;20989;-80
2023/07/10 02:39:58;;;;;;;8.88;5.30;;;19.20;99.90;;;;;;4933188;28;20247;-81
2023/07/10 02:42:27;;;;;;;7.57;4.82;;;19.20;99.90;;;;;;4941350;28;20227;-80
2023/07/10 02:44:53;;;;;;;6.70;4.95;;;19.20;99.90;;;;;;4929790;28;20621;-80
2023/07/10 02:47:22;;;;;;;9.55;4.88;;;19.20;99.90;;;;;;4935211;28;20244;-80
2023/07/10 02:49:48;;;;;;;8.88;5.03;;;19.20;99.90;;;;;;4949251;28;20219;-80
2023/07/10 02:52:15;;;;;;;8.90;4.90;;;19.20;99.90;;;;;;4931116;28;20238;-80
2023/07/10 02:54:42;;;;;;;8.50;4.63;;;19.20;99.90;;;;;;4946217;28;20256;-80
2023/07/10 02:57:09;;;;;;;7.78;5.25;;;19.20;99.90;;;;;;4946132;28;20228;-79
2023/07/10 02:59:35;;;;;;;7.10;4.97;;;19.20;99.90;;;;;;4930828;29;20228;-79
2023/07/10 03:02:02;;;;;;;8.02;5.65;;;19.30;99.90;;;;;;4934121;29;20226;-80
2023/07/10 03:04:31;;;;;;;7.05;5.60;;;19.20;99.90;;;;;;4944468;28;20228;-80
2023/07/10 03:06:57;;;;;;;10.10;5.95;;;19.20;99.90;;;;;;4944315;28;20226;-81
2023/07/10 03:09:24;;;;;;;10.00;5.80;;;19.20;99.90;;;;;;4937176;28;20239;-81
2023/07/10 03:11:51;;;;;;;9.30;5.75;;;19.30;99.90;;;;;;4932990;29;20648;-81
2023/07/10 03:14:17;;;;;;;7.57;5.50;;;19.20;99.90;;;;;;4921688;28;20267;-80
2023/07/10 03:16:44;;;;;;;8.35;5.32;;;19.20;99.90;;;;;;4931041;29;20765;-81
2023/07/10 03:19:13;;;;;;;9.15;5.40;;;19.20;99.90;;;;;;4945347;28;20271;-81
2023/07/10 03:21:41;;;;;;;10.63;5.55;;;19.20;99.90;;;;;;4931026;29;20231;-80
2023/07/10 03:24:07;;;;;;;10.77;6.07;;;19.20;99.90;;;;;;4943791;28;20231;-81
2023/07/10 03:26:34;;;;;;;6.95;5.38;;;19.20;99.90;;;;;;4933393;29;20234;-81
2023/07/10 03:29:08;;;;;;;9.55;5.10;;;19.10;99.90;;;;;;4929683;29;20230;-81
2023/07/10 03:31:35;;;;;;;9.05;5.60;;;19.10;99.90;;;;;;4946559;28;20784;-80
2023/07/10 03:34:02;;;;;;;8.52;5.43;;;19.10;99.90;;;;;;4926860;29;20296;-80
2023/07/10 03:36:29;;;;;;;7.40;5.07;;;19.00;99.90;;;;;;4949309;28;20291;-80
2023/07/10 03:38:57;;;;;;;8.70;5.15;;;19.10;99.90;;;;;;4952918;28;20216;-80
2023/07/10 03:41:24;;;;;;;7.97;5.60;;;19.10;99.90;;;;;;4953169;28;20243;-80
2023/07/10 03:43:51;;;;;;;9.82;5.82;;;19.10;99.90;;;;;;4948194;28;20351;-79
2023/07/10 03:46:18;;;;;;;8.70;5.70;;;19.10;99.90;;;;;;4948532;28;20222;-80
2023/07/10 03:48:45;;;;;;;12.40;5.68;;;19.10;99.90;;;;;;4948400;28;20238;-79
2023/07/10 03:51:12;;;;;;;7.35;5.80;;;19.10;99.90;;;;;;4949865;28;20231;-79
2023/07/10 03:53:39;;;;;;;10.80;5.80;;;19.20;99.90;;;;;;4951582;28;20235;-79
2023/07/10 03:56:08;;;;;;;6.90;5.55;;;19.20;99.90;;;;;;4947955;28;20616;-79
2023/07/10 03:58:38;;;;;;;7.88;5.63;;;19.20;99.90;;;;;;4951117;28;20233;-80
2023/07/10 04:01:05;;;;;;;9.40;6.13;;;19.20;99.90;;;;;;4944977;28;20228;-81
2023/07/10 04:03:33;;;;;;;9.25;6.70;;;19.20;99.90;;;;;;4962605;28;20241;-80
2023/07/10 04:06:01;;;;;;;8.80;6.20;;;19.20;99.90;;;;;;4951182;28;20235;-79
2023/07/10 04:08:30;;;;;;;14.18;7.70;;;19.20;99.90;;;;;;4952907;28;20257;-79
2023/07/10 04:10:58;;;;;;;11.38;7.45;;;19.20;99.90;;;;;;4951166;28;20279;-79
2023/07/10 04:13:27;;;;;;;9.60;6.68;;;19.20;99.90;;;;;;4933749;28;20231;-81
2023/07/10 04:15:58;;;;;;;9.77;7.18;;;19.20;99.90;;;;;;4955952;28;20233;-78
2023/07/10 04:18:28;;;;;;;10.35;6.57;;;19.20;99.90;;;;;;4950826;28;20251;-79
2023/07/10 04:20:54;;;;;;;10.48;7.20;;;19.20;99.90;;;;;;4958469;28;20338;-80
2023/07/10 04:23:21;;;;;;;10.13;6.90;;;19.20;99.90;;;;;;4968985;28;20229;-79
2023/07/10 04:25:49;;;;;;;8.40;7.03;;;19.20;99.90;;;;;;4954135;28;20598;-80
2023/07/10 04:28:15;;;;;;;9.75;6.90;;;19.20;99.90;;;;;;4953955;28;20298;-80
2023/07/10 04:30:45;;;;;;;7.32;6.60;;;19.20;99.90;;;;;;4951273;28;20300;-80
2023/07/10 04:33:12;;;;;;;9.43;7.03;;;19.20;99.90;;;;;;4936682;28;20315;-80
2023/07/10 04:35:39;;;;;;;10.48;7.10;;;19.20;99.90;;;;;;4932377;28;20223;-80
2023/07/10 04:38:06;;;;;;;9.82;7.10;;;19.30;99.90;;;;;;4943773;28;20239;-80
2023/07/10 04:40:33;;;;;;;11.02;7.32;;;19.30;99.90;;;;;;4927338;29;20233;-79
2023/07/10 04:43:00;;;;;;;7.97;7.18;;;19.30;99.90;;;;;;4930781;29;20232;-79
2023/07/10 04:45:27;;;;;;;10.32;7.32;;;19.40;99.90;;;;;;4963924;28;20224;-79
2023/07/10 04:47:55;;;;;;;9.25;7.10;;;19.40;99.90;;;;;;4949110;28;20239;-79
2023/07/10 04:50:22;;;;;;;8.85;6.72;;;19.40;99.90;;;;;;4952664;28;20578;-79
2023/07/10 04:52:49;;;;;;;11.82;7.90;;;19.50;99.90;;;;;;4951230;28;20227;-80
2023/07/10 04:55:16;;;;;;;10.80;7.50;;;19.50;99.90;;;;;;4954161;28;20223;-79
2023/07/10 04:57:43;;;;;;;11.85;7.55;;;19.50;99.90;;;;;;4958579;28;20230;-79
2023/07/10 05:00:10;;;;;;;10.07;7.63;;;19.60;99.90;;;;;;4951626;28;20318;-79
2023/07/10 05:02:37;;;;;;;8.98;7.32;;;19.60;99.90;;;;;;4946949;28;20247;-78
2023/07/10 05:05:06;;;;;;;10.00;7.50;;;19.70;99.90;;;;;;4950308;28;20311;-78
2023/07/10 05:07:32;;;;;;;9.57;7.60;;;19.70;99.90;;;;;;4951353;28;20326;-78
2023/07/10 05:10:00;;;;;;;9.43;7.35;;;19.70;99.90;;;;;;4947627;28;20227;-78
2023/07/10 05:12:27;;;;;;;9.98;7.53;;;19.80;99.90;;;;;;4951703;28;20231;-79
2023/07/10 05:14:53;;;;;;;10.32;7.20;;;19.90;99.90;;;;;;4944747;28;20232;-77
2023/07/10 05:17:20;;;;;;;9.13;7.13;;;20.00;99.90;;;;;;4968912;28;20315;-78
2023/07/10 05:19:47;;;;;;;8.52;6.75;;;20.00;99.90;;;;;;4958236;28;20259;-78
2023/07/10 05:22:15;;;;;;;7.80;6.80;;;20.10;99.90;;;;;;4965223;28;20236;-79
2023/07/10 05:24:41;;;;;;;9.90;6.38;;;20.10;99.90;;;;;;4949385;28;20266;-78
2023/07/10 05:27:08;;;;;;;7.30;6.15;;;20.20;99.90;;;;;;4947534;28;20388;-78
2023/07/10 05:29:35;;;;;;;8.25;6.32;;;20.20;99.90;;;;;;4948493;28;20230;-78
2023/07/10 05:32:01;;;;;;;8.35;7.30;;;20.30;99.90;;;;;;4948525;28;20223;-79
2023/07/10 05:34:28;;;;;;;8.93;7.35;;;20.30;99.90;;;;;;4948027;28;20232;-78
2023/07/10 05:36:55;;;;;;;8.38;7.07;;;20.40;99.90;;;;;;4948815;28;20231;-78
2023/07/10 05:39:23;;;;;;;11.68;7.32;;;20.40;99.90;;;;;;4971168;28;20251;-78
2023/07/10 05:41:50;;;;;;;9.90;7.05;;;20.50;99.90;;;;;;4955248;28;20594;-78
2023/07/10 05:44:17;;;;;;;7.82;6.35;;;20.50;99.90;;;;;;4955988;28;20681;-79
2023/07/10 05:46:44;;;;;;;8.57;7.15;;;20.60;99.90;;;;;;4954571;28;20227;-78
2023/07/10 05:49:10;;;;;;;9.02;6.70;;;20.60;99.90;;;;;;4955835;28;20613;-78
2023/07/10 05:51:37;;;;;;;9.38;6.57;;;20.70;99.90;;;;;;4961096;28;20668;-78
2023/07/10 05:54:04;;;;;;;8.63;6.90;;;20.70;99.90;;;;;;4950130;28;20448;-78
2023/07/10 05:56:32;;;;;;;8.02;6.32;;;20.80;99.90;;;;;;4947371;28;20236;-78
2023/07/10 05:58:59;;;;;;;8.70;6.65;;;20.80;99.90;;;;;;4930516;29;20220;-78
2023/07/10 06:01:25;;;;;;;8.77;6.40;;;20.90;99.90;;;;;;4954199;28;20238;-77
2023/07/10 06:03:52;;;;;;;8.05;6.07;;;20.90;99.90;;;;;;4964875;28;20235;-78
2023/07/10 06:06:19;;;;;;;8.23;6.40;;;21.00;99.90;;;;;;4961607;28;20660;-79
2023/07/10 06:08:45;;;;;;;7.25;6.43;;;21.00;99.90;;;;;;4955497;28;20228;-78
2023/07/10 06:11:12;;;;;;;10.18;6.78;;;21.10;99.90;;;;;;4951172;28;20238;-78
2023/07/10 06:13:40;;;;;;;8.38;6.20;;;21.10;99.90;;;;;;4965730;28;20290;-78
2023/07/10 06:16:10;;;;;;;7.75;6.38;;;21.20;99.90;;;;;;4953972;28;20227;-78
2023/07/10 06:18:37;;;;;;;9.10;6.20;;;21.20;99.90;;;;;;4948372;28;20288;-78
2023/07/10 06:21:05;;;;;;;8.57;6.78;;;21.30;99.90;;;;;;4952695;28;20658;-77
2023/07/10 06:23:32;;;;;;;8.60;6.45;;;21.30;99.90;;;;;;4952953;28;20255;-78
2023/07/10 06:25:59;;;;;;;8.13;6.88;;;21.30;99.90;;;;;;4946764;28;20227;-77
2023/07/10 06:28:26;;;;;;;8.80;6.57;;;21.30;99.90;;;;;;4947277;28;20283;-78
2023/07/10 06:30:59;;;;;;;7.95;7.05;;;21.30;99.90;;;;;;4956139;28;20719;-78
2023/07/10 06:33:26;;;;;;;7.70;6.90;;;21.40;99.90;;;;;;4970678;23;20269;-85
2023/07/10 06:35:53;;;;;;;9.25;7.28;;;21.40;99.90;;;;;;5001536;28;20218;-80
2023/07/10 06:38:19;;;;;;;9.50;7.38;;;21.40;99.90;;;;;;5011530;28;20605;-79
2023/07/10 06:40:47;;;;;;;8.38;7.50;;;21.50;99.90;;;;;;5008253;28;20225;-78
2023/07/10 06:43:14;;;;;;;11.35;7.90;;;21.60;99.90;;;;;;5006021;28;20309;-79
2023/07/10 06:45:41;;;;;;;9.63;7.28;;;21.60;99.90;;;;;;5040953;28;20228;-79
2023/07/10 06:48:08;;;;;;;10.20;7.18;;;21.70;99.90;;;;;;5020952;28;20227;-83
2023/07/10 06:50:35;;;;;;;11.25;8.05;;;21.80;99.90;;;;;;5026499;28;20228;-78
2023/07/10 06:53:02;;;;;;;9.18;7.45;;;21.90;99.90;;;;;;5025854;28;20217;-80
2023/07/10 06:55:29;;;;;;;10.35;7.80;;;21.90;99.90;;;;;;5023785;28;20216;-79
2023/07/10 06:57:55;;;;;;;8.63;6.70;;;22.00;99.90;;;;;;5013716;28;20230;-81
2023/07/10 07:00:22;;;;;;;9.30;7.13;;;22.00;99.90;;;;;;5023631;28;20248;-82
2023/07/10 07:02:49;;;;;;;9.82;7.50;;;22.00;99.90;;;;;;5010000;28;20238;-80
2023/07/10 07:05:17;;;;;;;10.25;7.20;;;22.00;99.90;;;;;;5001533;28;20604;-79
2023/07/10 07:07:44;;;;;;;8.02;7.22;;;22.00;99.90;;;;;;5003895;28;20969;-82
2023/07/10 07:10:14;;;;;;;12.00;7.80;;;22.00;99.90;;;;;;5006270;28;20601;-82
2023/07/10 07:12:41;;;;;;;40.85;12.13;;;22.00;99.90;;;;;;5014901;28;20955;-79
2023/07/10 07:15:09;;;;;;;13.95;11.10;;;21.90;99.90;;;;;;5001199;28;20229;-82
2023/07/10 07:17:36;;;;;;;13.25;10.50;;;21.70;99.90;;;;;;5003594;28;20229;-86
2023/07/10 07:20:04;;;;;;;13.85;11.60;;;21.50;99.90;;;;;;5003565;28;20217;-82
2023/07/10 07:22:32;;;;;;;18.83;13.02;;;21.20;99.90;;;;;;5006545;28;20245;-82
2023/07/10 07:24:59;;;;;;;15.43;13.93;;;21.00;99.90;;;;;;5017232;28;20236;-82
2023/07/10 07:27:25;;;;;;;16.85;15.27;;;20.80;99.90;;;;;;5027650;28;20639;-79
2023/07/10 07:29:53;;;;;;;16.85;15.20;;;20.60;99.90;;;;;;5031621;28;20247;-78
2023/07/10 07:32:20;;;;;;;16.52;14.15;;;20.40;99.90;;;;;;5003134;28;20591;-83
2023/07/10 07:34:47;;;;;;;15.98;14.38;;;20.30;99.90;;;;;;5010622;28;20598;-81
2023/07/10 07:37:14;;;;;;;18.15;16.27;;;20.10;99.90;;;;;;5016449;28;20221;-81
2023/07/10 07:39:42;;;;;;;17.45;15.65;;;19.90;99.90;;;;;;5001779;28;20225;-82
2023/07/10 07:42:09;;;;;;;17.48;15.68;;;19.80;99.90;;;;;;4998769;28;20229;-78
2023/07/10 07:44:36;;;;;;;19.42;17.40;;;19.70;99.90;;;;;;5012823;28;20231;-79
2023/07/10 07:47:03;;;;;;;17.70;15.95;;;19.60;99.90;;;;;;5001581;28;20225;-78
2023/07/10 07:49:29;;;;;;;19.45;17.50;;;19.50;99.90;;;;;;5001884;28;20236;-79
2023/07/10 07:51:56;;;;;;;19.80;16.67;;;19.50;99.90;;;;;;5005731;28;20224;-79
2023/07/10 07:54:23;;;;;;;16.92;15.23;;;19.50;99.90;;;;;;5002151;28;20229;-81
2023/07/10 07:56:51;;;;;;;15.57;14.15;;;19.60;99.90;;;;;;5010360;28;20609;-82
2023/07/10 07:59:19;;;;;;;16.95;14.48;;;19.60;99.90;;;;;;5018669;28;20593;-79
2023/07/10 08:01:46;;;;;;;15.05;12.63;;;19.80;99.90;;;;;;5008025;28;20698;-79
2023/07/10 08:04:13;;;;;;;13.30;11.93;;;19.90;99.90;;;;;;5003852;28;20237;-82
2023/07/10 08:06:40;;;;;;;15.02;12.38;;;19.90;99.90;;;;;;5003590;28;20293;-81
2023/07/10 08:09:06;;;;;;;18.02;14.63;;;20.00;99.90;;;;;;5003500;28;20775;-80
2023/07/10 08:11:33;;;;;;;14.10;12.63;;;20.00;99.90;;;;;;5023211;28;20213;-80
2023/07/10 08:14:01;;;;;;;13.57;11.63;;;20.20;99.90;;;;;;5017024;28;20225;-83
2023/07/10 08:16:28;;;;;;;12.48;10.35;;;20.30;99.90;;;;;;5001299;28;20645;-81
2023/07/10 08:18:54;;;;;;;10.15;8.98;;;20.50;99.90;;;;;;5023564;28;20516;-80
2023/07/10 08:21:21;;;;;;;10.77;9.50;;;20.60;99.90;;;;;;5028126;28;20705;-83
2023/07/10 08:23:48;;;;;;;10.05;7.78;;;20.80;99.90;;;;;;5033173;28;20224;-82
2023/07/10 08:26:14;;;;;;;8.65;6.10;;;20.90;99.90;;;;;;5038489;28;20622;-81
2023/07/10 08:28:41;;;;;;;9.35;6.32;;;21.00;99.90;;;;;;5033246;28;20725;-83
2023/07/10 08:31:09;;;;;;;6.63;5.90;;;21.10;99.90;;;;;;5031562;28;20232;-79
2023/07/10 08:33:36;;;;;;;9.30;5.95;;;21.20;99.90;;;;;;5018788;28;20230;-81
2023/07/10 08:36:05;;;;;;;11.00;6.95;;;21.10;99.90;;;;;;5007089;28;20694;-82
2023/07/10 08:38:32;;;;;;;10.45;6.65;;;21.10;99.90;;;;;;5029299;28;20231;-80
2023/07/10 08:41:01;;;;;;;8.30;6.65;;;21.10;99.90;;;;;;5033925;28;20217;-89
2023/07/10 08:43:31;;;;;;;9.93;6.72;;;21.00;99.90;;;;;;5027993;28;20232;-87
2023/07/10 08:46:03;;;;;;;9.35;7.10;;;21.00;99.90;;;;;;5029297;28;20224;-82
2023/07/10 08:48:35;;;;;;;8.15;6.65;;;20.90;99.90;;;;;;5018281;28;20229;-80
2023/07/10 08:51:11;;;;;;;11.85;7.90;;;20.80;99.90;;;;;;5020989;28;20233;-82
2023/07/10 08:53:42;;;;;;;10.00;7.57;;;20.70;99.90;;;;;;4996497;28;20251;-83
2023/07/10 08:56:20;;;;;;;9.98;7.03;;;20.70;99.90;;;;;;5005402;28;20315;-80
2023/07/10 08:58:47;;;;;;;10.55;7.03;;;20.70;99.90;;;;;;5019090;28;20225;-80
2023/07/10 09:01:30;;;;;;;9.25;7.03;;;20.70;99.90;;;;;;5023808;28;20722;-85
2023/07/10 09:04:00;;;;;;;9.27;7.13;;;20.60;99.90;;;;;;5010173;28;20464;-81
2023/07/10 09:06:36;;;;;;;8.35;6.68;;;20.60;99.90;;;;;;5006282;28;20229;-80
2023/07/10 09:09:09;;;;;;;7.63;5.68;;;20.70;99.90;;;;;;5009704;28;20418;-83
2023/07/10 09:11:36;;;;;;;9.27;5.53;;;20.80;99.90;;;;;;5011357;28;20610;-85
2023/07/10 09:14:16;;;;;;;8.70;5.65;;;20.90;99.90;;;;;;5005835;28;20229;-80
2023/07/10 09:16:45;;;;;;;6.78;5.03;;;21.10;99.90;;;;;;4997427;28;20235;-82
2023/07/10 09:19:18;;;;;;;6.15;4.72;;;21.40;99.90;;;;;;4999401;28;20695;-79
2023/07/10 09:21:45;;;;;;;6.55;5.20;;;21.70;99.90;;;;;;5010123;28;20278;-80
2023/07/10 09:24:17;;;;;;;6.57;4.55;;;22.10;99.90;;;;;;5025613;28;20221;-81
2023/07/10 09:26:44;;;;;;;7.60;4.30;;;22.30;99.90;;;;;;5012968;28;20372;-78
2023/07/10 09:29:29;;;;;;;7.85;4.50;;;22.60;99.90;;;;;;5017015;28;20221;-80
2023/07/10 09:32:02;;;;;;;6.93;4.43;;;22.80;99.90;;;;;;5017995;28;20724;-78
2023/07/10 09:34:33;;;;;;;6.47;3.40;;;23.10;99.90;;;;;;5019873;28;20228;-82
2023/07/10 09:37:01;;;;;;;5.60;3.35;;;23.40;99.90;;;;;;5027534;28;20221;-83
2023/07/10 09:39:29;;;;;;;6.45;3.40;;;23.70;99.90;;;;;;5005270;28;20230;-82
2023/07/10 09:41:58;;;;;;;5.18;2.97;;;24.10;99.90;;;;;;5011157;28;20223;-81
2023/07/10 09:44:33;;;;;;;4.10;2.70;;;24.30;99.90;;;;;;4997331;28;20233;-80
2023/07/10 09:47:07;;;;;;;5.10;3.05;;;24.50;99.90;;;;;;5011735;28;20224;-84
2023/07/10 09:49:41;;;;;;;7.00;3.45;;;24.60;99.90;;;;;;5004881;28;20233;-79
2023/07/10 09:52:16;;;;;;;4.68;3.00;;;24.70;99.90;;;;;;5005792;28;20413;-83
2023/07/10 09:54:43;;;;;;;4.97;2.83;;;24.70;99.90;;;;;;5025312;28;20236;-81
2023/07/10 09:57:13;;;;;;;4.45;3.08;;;24.90;99.90;;;;;;5018348;28;20221;-78
2023/07/10 09:59:40;;;;;;;3.08;2.55;;;25.20;99.90;;;;;;5021755;28;20232;-81
2023/07/10 10:02:18;;;;;;;5.50;2.58;;;25.40;99.90;;;;;;5021250;28;20449;-80
2023/07/10 10:04:52;;;;;;;3.92;2.58;;;25.70;99.90;;;;;;5020411;28;20719;-83
2023/07/10 10:07:20;;;;;;;4.40;2.63;;;26.10;99.90;;;;;;5015362;28;20221;-79
2023/07/10 10:09:47;;;;;;;4.15;2.80;;;26.30;99.90;;;;;;5044899;28;20315;-81
2023/07/10 10:12:23;;;;;;;4.25;2.75;;;26.50;99.90;;;;;;5003999;28;20696;-84
2023/07/10 10:14:55;;;;;;;4.43;2.60;;;26.70;99.90;;;;;;5010575;28;20221;-80
2023/07/10 10:17:25;;;;;;;5.18;2.65;;;27.10;99.90;;;;;;5012685;28;20218;-81
2023/07/10 10:19:56;;;;;;;3.30;2.58;;;27.40;99.90;;;;;;5016684;28;20429;-80
2023/07/10 10:22:28;;;;;;;9.02;6.60;;;27.70;99.90;;;;;;5004415;28;20221;-80
2023/07/10 10:24:55;;;;;;;7.93;3.30;;;28.00;99.90;;;;;;5004358;28;20268;-81
2023/07/10 10:27:32;;;;;;;4.70;3.00;;;28.20;99.90;;;;;;5020226;28;20225;-83
2023/07/10 10:30:26;;;;;;;4.90;2.30;;;28.30;99.40;;;;;;5000485;28;20763;-78
2023/07/10 10:33:03;;;;;;;2.83;2.22;;;28.40;99.90;;;;;;5000280;28;20213;-79
2023/07/10 10:35:49;;;;;;;3.00;2.15;;;28.40;98.60;;;;;;4999659;28;20229;-81
2023/07/10 10:38:43;;;;;;;2.95;1.90;;;28.30;97.90;;;;;;4996652;28;20224;-81
2023/07/10 10:41:30;;;;;;;3.30;2.03;;;28.40;97.90;;;;;;4997772;28;20225;-78
2023/07/10 10:44:04;;;;;;;2.28;1.90;;;28.40;98.40;;;;;;5001912;28;20245;-84
2023/07/10 10:46:47;;;;;;;3.15;2.00;;;28.60;98.00;;;;;;4994173;28;20222;-81
2023/07/10 10:49:33;;;;;;;2.72;2.10;;;28.80;97.70;;;;;;4996603;28;20558;-81
2023/07/10 10:52:06;;;;;;;3.00;2.20;;;29.00;96.90;;;;;;5004340;28;20210;-82
2023/07/10 10:54:43;;;;;;;2.67;1.83;;;29.20;97.00;;;;;;4998462;28;20225;-84
2023/07/10 10:57:29;;;;;;;2.45;2.10;;;29.40;96.80;;;;;;5003889;28;20236;-83
2023/07/10 11:00:09;;;;;;;4.05;2.25;;;29.60;96.00;;;;;;5002655;28;20229;-84
2023/07/10 11:02:51;;;;;;;2.50;2.13;;;29.70;94.30;;;;;;5003133;28;20228;-83
2023/07/10 11:05:22;;;;;;;3.55;2.50;;;29.70;94.50;;;;;;5022101;28;20731;-82
2023/07/10 11:07:54;;;;;;;3.53;2.47;;;29.80;94.40;;;;;;5025565;28;20236;-82
2023/07/10 11:10:30;;;;;;;3.15;1.80;;;29.90;94.00;;;;;;5024958;28;20221;-79
2023/07/10 11:12:57;;;;;;;4.15;2.20;;;30.00;93.60;;;;;;5023121;28;20215;-81
2023/07/10 11:15:24;;;;;;;3.20;2.00;;;30.10;93.70;;;;;;5016370;28;20243;-81
2023/07/10 11:17:53;;;;;;;3.15;2.25;;;30.00;92.80;;;;;;5000813;28;20225;-83
2023/07/10 11:20:20;;;;;;;3.15;2.17;;;29.90;92.70;;;;;;5001842;28;20707;-80
2023/07/10 11:22:53;;;;;;;3.70;2.40;;;29.70;92.50;;;;;;5013801;28;20723;-83
2023/07/10 11:25:34;;;;;;;4.05;2.35;;;29.60;92.50;;;;;;5011488;28;20223;-80
2023/07/10 11:28:04;;;;;;;2.85;2.55;;;29.50;91.90;;;;;;5020123;28;20311;-84
2023/07/10 11:30:34;;;;;;;2.47;2.15;;;29.40;92.00;;;;;;5010550;28;20221;-80
2023/07/10 11:33:04;;;;;;;4.00;2.42;;;29.30;92.10;;;;;;5018891;28;20706;-82
2023/07/10 11:35:32;;;;;;;5.63;2.70;;;29.10;92.10;;;;;;5019608;28;20303;-82
2023/07/10 11:38:18;;;;;;;3.97;2.75;;;29.00;92.80;;;;;;5016210;28;20262;-79
2023/07/10 11:40:49;;;;;;;2.95;2.20;;;28.90;92.70;;;;;;5025522;28;20229;-81
2023/07/10 11:43:57;;;;;;;6.00;2.50;;;28.90;92.70;;;;;;4999821;28;20326;-81
2023/07/10 11:46:31;;;;;;;3.95;2.67;;;28.90;92.80;;;;;;5012712;28;20231;-79
2023/07/10 11:49:19;;;;;;;4.20;2.55;;;29.00;93.60;;;;;;5018596;28;20251;-80
2023/07/10 11:52:25;;;;;;;3.20;2.47;;;29.10;93.10;;;;;;5011466;28;20710;-84
2023/07/10 11:55:09;;;;;;;5.22;2.50;;;29.30;93.00;;;;;;5009154;28;20244;-84
2023/07/10 11:57:37;;;;;;;4.05;2.55;;;29.60;92.10;;;;;;5004507;28;20224;-79
2023/07/10 12:00:06;;;;;;;3.88;2.45;;;29.70;91.90;;;;;;5023763;28;20594;-77
2023/07/10 12:02:44;;;;;;;8.45;2.58;;;29.80;91.70;;;;;;5017235;28;20224;-80
2023/07/10 12:05:16;;;;;;;2.38;1.98;;;29.90;90.90;;;;;;5019657;28;20694;-85
2023/07/10 12:07:54;;;;;;;4.40;2.30;;;29.80;90.30;;;;;;5022682;28;20306;-79
2023/07/10 12:10:22;;;;;;;3.38;2.30;;;29.90;89.90;;;;;;5019613;28;20228;-83
2023/07/10 12:12:50;;;;;;;4.28;2.00;;;30.00;89.70;;;;;;5019977;28;20229;-83
2023/07/10 12:15:16;;;;;;;3.63;2.15;;;30.10;87.10;;;;;;4999582;28;20609;-82
2023/07/10 12:17:43;;;;;;;7.65;2.72;;;30.10;86.50;;;;;;5003850;28;20718;-83
2023/07/10 12:20:22;;;;;;;3.67;2.20;;;30.10;86.50;;;;;;5000241;28;20221;-80
2023/07/10 12:22:51;;;;;;;3.70;2.40;;;30.00;85.80;;;;;;4999863;28;20276;-79
2023/07/10 12:25:18;;;;;;;2.75;2.17;;;29.90;85.40;;;;;;5002028;28;20228;-78
2023/07/10 12:27:46;;;;;;;4.22;2.10;;;29.90;86.70;;;;;;5000865;28;20723;-82
2023/07/10 12:30:16;;;;;;;5.00;2.30;;;29.90;85.20;;;;;;5022726;28;20750;-81
2023/07/10 12:32:44;;;;;;;5.57;2.13;;;29.80;85.20;;;;;;5017139;28;20228;-83
2023/07/10 12:35:17;;;;;;;3.33;2.17;;;29.90;84.50;;;;;;5023335;28;20230;-80
2023/07/10 12:37:47;;;;;;;3.75;2.15;;;30.00;83.80;;;;;;5020849;28;20218;-79
2023/07/10 12:40:15;;;;;;;2.97;2.20;;;30.00;82.60;;;;;;5021189;28;20485;-79
2023/07/10 12:42:43;;;;;;;4.00;2.20;;;30.20;82.60;;;;;;5004729;28;20232;-80
2023/07/10 12:45:21;;;;;;;5.82;2.00;;;30.20;80.60;;;;;;5023543;28;20224;-79
2023/07/10 12:47:56;;;;;;;4.30;2.03;;;30.30;80.70;;;;;;5046031;28;20593;-80
2023/07/10 12:50:34;;;;;;;2.38;1.88;;;30.20;80.20;;;;;;5021204;28;20230;-82
2023/07/10 12:53:05;;;;;;;2.53;1.90;;;29.90;80.40;;;;;;5004418;28;20217;-81
2023/07/10 12:55:33;;;;;;;4.25;2.30;;;29.60;80.70;;;;;;5003045;28;20578;-80